TFM - Tactical Decision Aid
ID: Runway Winds: CIG/VIS Threshold:

KCNM - Carlsbad/Cavern City, NM, US

Updated at: 1513 UTC 22 Apr 2021
Latest TAF at: 1120 UTC 22 Apr 2021

TAF Board

Time<<23/04Z 23/05Z 23/06Z 23/07Z 23/08Z 23/09Z 23/10Z 23/11Z 23/12Z 23/13Z 23/14Z 23/15Z 23/16Z>>
Type PRVL PRVL PRVL PRVL PRVL PRVL PRVL PRVL
VIS >6 >6 >6 >6 >6 >6 >6 >6
CIG -- -- -- -- -- -- -- --
Cover SCT SCT SCT SCT SCT SCT SCT SCT
FltCat VFR VFR VFR VFR VFR VFR VFR VFR
WX -- -- -- -- -- -- -- --
WDir 210 210 210 210 210 210 210 210
WSpd 18 18 18 18 18 18 18 18
WGst 26 26 26 26 26 26 26 26

TDA Impact Legend

  None Marginal Slight Moderate High
Visibility (sm) >5 3≤X≤5 2≤X<3 0.5≤X<2 <0.5
Ceiling (100 ft) >30 10≤X≤30 6≤X<10 2≤X<6 <2
Wind Speed (kt) <15 15≤X<25 25≤X<30 ≥30
Wind Gust (kt) <15 15≤X<25 25≤X<35 ≥35
Weather No Wx Reported VCTS -TS,-FZRA TS,FZRA +TS,+FZRA
TAF
KCNM 221120Z 2212/2312 14010KT P6SM SCT250
  FM222000 21018G26KT P6SM SCT250


Radar Display
Forecast Discussion